Time;durP1;ratioP1;P1;durP2;ratioP2;P2;SDS_P1;SDS_P2;PMS_P1;PMS_P2;Temp;Humidity;BMP_temperature;BMP_pressure;BME280_temperature;BME280_humidity;BME280_pressure;Samples;Min_cycle;Max_cycle;Signal;HPM_P1;HPM_P2
2022/08/12 00:44:16;;;;;;;5.45;2.47;;;;;;;19.94;43.10;101612.56;5083464;27;20557;-63
2022/08/12 00:46:49;;;;;;;6.30;2.60;;;;;;;20.08;42.30;101624.81;5082973;28;20056;-63
2022/08/12 00:49:17;;;;;;;6.55;2.38;;;;;;;20.06;42.57;101624.09;5072314;28;20049;-63
2022/08/12 00:54:29;;;;;;;3.80;2.60;;;;;;;19.92;42.48;101620.66;5080871;27;20407;-63
2022/08/12 00:56:58;;;;;;;5.22;2.50;;;;;;;19.88;42.99;101616.53;5083725;28;20075;-63
2022/08/12 00:59:25;;;;;;;5.50;2.67;;;;;;;19.96;43.06;101623.09;5079284;27;20055;-64
2022/08/12 01:01:55;;;;;;;4.63;2.40;;;;;;;19.89;43.38;101622.72;5083945;27;20044;-64
2022/08/12 01:12:42;;;;;;;4.82;2.45;;;;;;;19.72;43.55;101625.81;5082941;27;20108;-64
2022/08/12 01:15:11;;;;;;;5.55;2.63;;;;;;;19.70;43.16;101628.59;5081759;27;20040;-64
2022/08/12 01:17:43;;;;;;;4.63;3.15;;;;;;;19.64;44.00;101622.88;5082525;27;20067;-64
2022/08/12 01:20:16;;;;;;;5.93;3.17;;;;;;;19.48;44.04;101627.66;5083784;27;20051;-63
2022/08/12 01:22:54;;;;;;;7.68;3.08;;;;;;;19.48;43.93;101628.50;5071219;28;20056;-64
2022/08/12 01:25:24;;;;;;;6.57;2.72;;;;;;;19.41;45.02;101619.25;5076419;28;20487;-63
2022/08/12 01:27:52;;;;;;;10.60;3.53;;;;;;;19.42;44.37;101619.19;5085014;28;20113;-63
2022/08/12 01:30:19;;;;;;;3.38;2.58;;;;;;;19.45;44.35;101612.78;5086421;28;20105;-63
2022/08/12 01:32:48;;;;;;;6.00;2.92;;;;;;;19.38;44.71;101630.13;5089296;28;20503;-63
2022/08/12 01:35:17;;;;;;;6.75;2.80;;;;;;;19.07;45.69;101628.88;5086734;28;20048;-63
2022/08/12 01:37:47;;;;;;;6.47;2.53;;;;;;;19.13;45.25;101628.44;5086834;28;20138;-63
2022/08/12 01:40:15;;;;;;;9.43;3.10;;;;;;;19.18;45.99;101628.13;5087162;28;20047;-63
2022/08/12 01:42:45;;;;;;;4.50;2.45;;;;;;;19.13;45.43;101622.28;5085152;28;20514;-63
2022/08/12 01:45:13;;;;;;;5.30;2.65;;;;;;;19.06;45.65;101621.88;5086597;27;20093;-63
2022/08/12 01:47:50;;;;;;;4.50;2.72;;;;;;;18.89;45.76;101622.25;5081831;27;20045;-63
2022/08/12 01:50:26;;;;;;;5.03;2.67;;;;;;;18.95;46.20;101613.84;5079528;27;20056;-63
2022/08/12 01:53:00;;;;;;;4.47;2.80;;;;;;;18.82;46.84;101621.00;5067779;28;20047;-63
2022/08/12 01:55:32;;;;;;;4.28;2.70;;;;;;;18.46;47.35;101627.94;5075690;27;20072;-63
2022/08/12 01:58:11;;;;;;;5.47;2.90;;;;;;;18.45;47.61;101628.03;5090497;28;20048;-63
2022/08/12 02:00:47;;;;;;;5.90;2.80;;;;;;;18.68;46.83;101623.78;5076211;28;20051;-63
2022/08/12 02:03:26;;;;;;;7.00;2.70;;;;;;;18.62;47.12;101626.91;5076303;28;20506;-63
2022/08/12 02:11:33;;;;;;;4.25;3.10;;;;;;;18.45;47.76;101623.59;5088254;28;20055;-63
2022/08/12 02:14:30;;;;;;;4.55;2.72;;;;;;;18.57;47.52;101618.41;5085398;28;20044;-63
2022/08/12 02:17:30;;;;;;;4.10;3.08;;;;;;;18.46;47.88;101621.78;5086060;28;20040;-63
2022/08/12 02:20:05;;;;;;;5.38;2.80;;;;;;;18.59;47.77;101621.81;5074887;28;20044;-63
2022/08/12 02:22:37;;;;;;;7.85;3.00;;;;;;;18.65;47.44;101624.88;5060893;28;20144;-63
2022/08/12 02:25:08;;;;;;;4.13;3.10;;;;;;;18.61;47.24;101615.41;5051083;28;20048;-63
2022/08/12 02:27:39;;;;;;;5.03;2.95;;;;;;;18.54;47.42;101624.78;5064295;28;20048;-63
2022/08/12 02:30:09;;;;;;;6.70;3.08;;;;;;;18.34;48.13;101620.84;5066274;28;20128;-63
2022/08/12 02:32:39;;;;;;;4.00;2.75;;;;;;;18.32;47.93;101619.25;5067259;28;20049;-63
2022/08/12 02:35:10;;;;;;;4.82;2.95;;;;;;;18.58;47.08;101622.75;5065457;28;20409;-63
2022/08/12 02:37:39;;;;;;;4.45;3.10;;;;;;;18.83;46.88;101635.97;5069789;27;20062;-64
2022/08/12 02:40:08;;;;;;;10.15;2.85;;;;;;;18.52;48.14;101624.03;5083559;27;20500;-63
2022/08/12 02:42:35;;;;;;;5.13;2.90;;;;;;;18.54;48.21;101619.47;5086446;28;20052;-63
2022/08/12 02:45:07;;;;;;;5.65;2.83;;;;;;;18.45;49.22;101623.59;5085296;27;20063;-63
2022/08/12 02:47:41;;;;;;;6.43;3.10;;;;;;;18.15;49.55;101611.59;5085317;27;20076;-63
2022/08/12 02:50:10;;;;;;;5.35;3.13;;;;;;;18.09;49.80;101614.69;5084825;27;20051;-63
2022/08/12 02:52:37;;;;;;;6.50;2.80;;;;;;;18.05;49.54;101615.84;5086912;28;20048;-64
2022/08/12 02:55:13;;;;;;;3.97;2.70;;;;;;;18.04;49.46;101614.16;5077115;27;20043;-63
2022/08/12 02:57:42;;;;;;;6.03;3.00;;;;;;;17.79;50.25;101615.84;5097435;27;20488;-63
2022/08/12 03:00:10;;;;;;;6.68;3.15;;;;;;;17.84;50.67;101604.91;5084951;27;20047;-64
2022/08/12 03:02:40;;;;;;;5.22;3.15;;;;;;;17.97;49.85;101614.56;5086341;27;20060;-63
2022/08/12 03:05:11;;;;;;;5.70;2.80;;;;;;;17.86;50.39;101616.25;5078659;27;20048;-63
2022/08/12 03:07:44;;;;;;;4.03;2.88;;;;;;;17.81;50.68;101607.78;5084854;27;20040;-64
2022/08/12 03:10:13;;;;;;;3.63;2.90;;;;;;;17.83;50.57;101604.06;5071712;27;20407;-63
2022/08/12 03:12:42;;;;;;;4.80;2.78;;;;;;;18.20;49.36;101617.44;5084261;28;20180;-63
2022/08/12 03:15:11;;;;;;;4.45;3.13;;;;;;;18.15;49.17;101623.06;5087333;27;20048;-64
2022/08/12 03:17:46;;;;;;;3.53;2.90;;;;;;;18.08;49.42;101619.13;5085347;27;20050;-63
2022/08/12 03:20:16;;;;;;;7.20;2.90;;;;;;;18.00;49.95;101624.97;5084278;27;20040;-64
2022/08/12 03:22:44;;;;;;;4.35;2.90;;;;;;;18.04;49.46;101620.31;5084106;28;20062;-65
2022/08/12 03:25:15;;;;;;;4.65;3.22;;;;;;;18.02;49.96;101621.38;5087045;27;20039;-63
2022/08/12 03:27:48;;;;;;;7.03;3.08;;;;;;;17.74;50.44;101627.69;5075254;27;20041;-63
2022/08/12 03:30:15;;;;;;;5.72;3.03;;;;;;;17.84;50.13;101623.50;5075815;27;20040;-63
2022/08/12 03:32:45;;;;;;;8.13;3.50;;;;;;;17.75;50.43;101632.06;5085663;27;20044;-63
2022/08/12 03:35:16;;;;;;;4.00;3.05;;;;;;;17.86;50.04;101625.06;5085113;27;20062;-63
2022/08/12 03:37:44;;;;;;;4.32;3.17;;;;;;;17.89;50.37;101621.34;5087004;27;20093;-64
2022/08/12 03:41:32;;;;;;;5.90;3.10;;;;;;;17.69;51.16;101638.63;5083026;27;20101;-63
2022/08/12 04:02:23;;;;;;;8.65;3.40;;;;;;;17.48;52.05;101632.06;5058993;28;20139;-63
2022/08/12 04:04:50;;;;;;;5.43;3.25;;;;;;;17.41;52.72;101626.31;5050542;28;20148;-63
2022/08/12 04:07:17;;;;;;;10.63;4.00;;;;;;;17.49;51.66;101636.41;5064808;28;20045;-63
2022/08/12 04:09:45;;;;;;;6.40;4.20;;;;;;;17.14;52.98;101637.88;5065489;28;20040;-63
2022/08/12 04:14:57;;;;;;;11.27;3.95;;;;;;;17.37;51.54;101635.44;5083614;27;20178;-63
2022/08/12 04:17:26;;;;;;;6.78;4.10;;;;;;;17.47;51.48;101639.19;5084023;28;20039;-63
2022/08/12 04:19:54;;;;;;;6.13;3.70;;;;;;;17.47;51.30;101630.38;5083698;28;20040;-63
2022/08/12 04:22:21;;;;;;;6.30;3.80;;;;;;;17.45;51.96;101635.78;5085565;28;20044;-63
2022/08/12 04:24:48;;;;;;;7.80;4.18;;;;;;;17.42;51.73;101641.28;5083488;27;20047;-63
2022/08/12 04:27:14;;;;;;;5.00;3.65;;;;;;;17.19;52.42;101633.97;5082216;27;20044;-63
2022/08/12 04:29:41;;;;;;;6.97;3.97;;;;;;;17.25;52.10;101643.34;5085456;28;20047;-63
2022/08/12 04:32:08;;;;;;;5.15;3.67;;;;;;;17.31;51.57;101642.94;5084484;27;20488;-63
2022/08/12 04:34:36;;;;;;;6.43;4.18;;;;;;;17.43;50.57;101645.66;5083784;28;20052;-63
2022/08/12 04:37:04;;;;;;;4.75;3.65;;;;;;;17.58;51.12;101640.31;5096125;27;20043;-63
2022/08/12 04:39:31;;;;;;;7.18;3.70;;;;;;;17.70;51.20;101647.44;5085782;27;20043;-63
2022/08/12 04:41:59;;;;;;;6.07;4.22;;;;;;;17.68;51.13;101650.19;5083450;27;20101;-63
2022/08/12 04:44:26;;;;;;;7.50;3.80;;;;;;;17.71;51.33;101643.81;5085395;27;20062;-63
2022/08/12 04:46:53;;;;;;;7.53;4.93;;;;;;;17.71;52.40;101643.81;5083009;28;20048;-63
2022/08/12 04:49:21;;;;;;;6.15;4.13;;;;;;;17.82;51.86;101649.25;5082627;28;20541;-63
2022/08/12 04:51:47;;;;;;;9.50;3.70;;;;;;;18.03;50.79;101639.88;5084630;28;20521;-63
2022/08/12 04:54:15;;;;;;;8.90;3.53;;;;;;;18.20;50.20;101631.56;5084005;28;20129;-64
2022/08/12 04:56:44;;;;;;;6.47;3.80;;;;;;;18.31;49.68;101639.63;5084637;28;20093;-63
2022/08/12 04:59:11;;;;;;;6.03;3.70;;;;;;;18.33;49.63;101639.50;5085509;28;20051;-63
2022/08/12 05:01:37;;;;;;;5.53;3.58;;;;;;;18.44;49.36;101645.78;5084056;28;20040;-63
2022/08/12 05:04:05;;;;;;;6.65;3.85;;;;;;;18.53;48.30;101643.47;5082739;27;20450;-63
2022/08/12 05:06:31;;;;;;;9.48;3.60;;;;;;;18.65;48.40;101639.97;5084144;27;20052;-63
2022/08/12 05:08:59;;;;;;;3.92;3.53;;;;;;;18.86;47.14;101638.41;5081798;27;20126;-64
2022/08/12 05:11:27;;;;;;;5.72;3.40;;;;;;;18.97;47.46;101641.16;5084390;28;20549;-64
2022/08/12 05:13:59;;;;;;;4.40;3.50;;;;;;;19.19;46.83;101643.09;5084632;27;20048;-64
2022/08/12 05:16:25;;;;;;;6.00;3.60;;;;;;;19.21;47.56;101641.19;5072366;28;20036;-64
2022/08/12 05:18:52;;;;;;;4.95;3.50;;;;;;;19.49;46.32;101640.00;5082120;28;20071;-63
2022/08/12 05:21:18;;;;;;;5.55;2.90;;;;;;;19.72;45.59;101636.47;5083915;28;20048;-64
2022/08/12 05:23:44;;;;;;;5.40;2.90;;;;;;;19.86;46.21;101633.59;5083493;28;20102;-62
2022/08/12 05:26:11;;;;;;;8.02;3.30;;;;;;;20.38;45.17;101646.44;5062967;28;20137;-64
2022/08/12 05:28:39;;;;;;;6.85;3.13;;;;;;;20.49;44.90;101640.25;5072495;28;20102;-64
2022/08/12 05:31:06;;;;;;;5.63;2.97;;;;;;;21.10;42.71;101650.34;5072901;28;20448;-63
2022/08/12 05:33:36;;;;;;;5.05;3.08;;;;;;;21.44;42.50;101642.28;5062564;28;20397;-63
2022/08/12 05:36:06;;;;;;;8.48;3.17;;;;;;;21.66;42.02;101647.53;5063503;28;20117;-63
2022/08/12 05:41:20;;;;;;;6.20;2.80;;;;;;;22.67;39.62;101645.91;5065350;28;20052;-63
2022/08/12 05:43:50;;;;;;;6.82;2.70;;;;;;;23.15;37.96;101648.72;5083861;28;20517;-63
2022/08/12 05:46:16;;;;;;;4.70;2.70;;;;;;;23.57;37.68;101646.69;5075065;28;20497;-63
2022/08/12 05:48:43;;;;;;;4.35;3.13;;;;;;;23.84;37.54;101643.28;5091202;28;20052;-63
2022/08/12 05:51:10;;;;;;;5.60;3.03;;;;;;;23.46;37.29;101654.88;5085321;28;20048;-63
2022/08/12 05:53:37;;;;;;;7.78;2.65;;;;;;;23.93;36.82;101654.00;5082945;28;20530;-63
2022/08/12 05:56:04;;;;;;;5.38;2.80;;;;;;;23.86;36.99;101658.22;5084558;28;20052;-64
2022/08/12 05:58:31;;;;;;;5.28;2.40;;;;;;;24.08;36.66;101655.22;5084044;28;20857;-64
2022/08/12 06:01:00;;;;;;;3.70;2.63;;;;;;;24.38;36.41;101654.19;5067762;27;20109;-64
2022/08/12 06:03:26;;;;;;;4.53;2.90;;;;;;;24.55;36.36;101666.81;5082588;27;20051;-64
2022/08/12 06:05:55;;;;;;;6.40;3.05;;;;;;;24.89;35.55;101661.75;5082291;27;20093;-63
2022/08/12 06:08:23;;;;;;;3.10;2.40;;;;;;;25.21;35.54;101658.59;5081421;27;20119;-63
2022/08/12 06:10:49;;;;;;;4.15;2.40;;;;;;;25.55;34.73;101666.84;5082878;28;20044;-63
2022/08/12 06:13:16;;;;;;;3.17;2.40;;;;;;;25.87;34.92;101655.56;5081868;27;20052;-63
2022/08/12 06:15:42;;;;;;;7.53;2.35;;;;;;;26.17;33.59;101661.31;5088322;27;20117;-63
2022/08/12 06:18:12;;;;;;;5.65;2.70;;;;;;;26.50;33.71;101664.22;5086561;27;20497;-63
2022/08/12 06:20:39;;;;;;;4.70;2.58;;;;;;;26.16;33.29;101672.22;5086276;28;20047;-64
2022/08/12 06:23:06;;;;;;;5.07;2.45;;;;;;;26.85;32.57;101664.09;5087294;28;20167;-63
2022/08/12 06:25:33;;;;;;;6.28;2.28;;;;;;;27.55;31.85;101664.63;5086982;28;20079;-63
2022/08/12 06:28:02;;;;;;;5.53;2.50;;;;;;;27.93;30.82;101666.66;5077685;28;20043;-63
2022/08/12 06:30:30;;;;;;;12.23;2.97;;;;;;;27.84;30.54;101669.50;5086567;27;20131;-63
2022/08/12 06:32:56;;;;;;;5.47;2.42;;;;;;;28.30;30.26;101657.19;5085680;27;20492;-63
2022/08/12 06:35:26;;;;;;;7.28;2.72;;;;;;;27.80;30.69;101666.31;5085214;27;20063;-63
2022/08/12 06:37:54;;;;;;;10.30;2.90;;;;;;;27.62;30.79;101662.94;5086698;27;20047;-64
2022/08/12 06:42:46;;;;;;;5.70;2.72;;;;;;;27.78;31.19;101660.25;5075283;28;20072;-64
2022/08/12 06:43:07;;;;;;;7.30;2.50;;;;;;;28.08;30.41;101655.19;5076209;27;20044;-63
2022/08/12 06:45:43;;;;;;;3.75;2.30;;;;;;;28.33;30.73;101648.75;5086046;28;20055;-64
2022/08/12 06:48:10;;;;;;;3.78;2.30;;;;;;;28.33;30.53;101646.88;5085622;27;20462;-63
2022/08/12 06:50:38;;;;;;;6.40;2.10;;;;;;;27.95;29.44;101647.59;5084737;28;20487;-63
2022/08/12 06:53:05;;;;;;;3.75;2.25;;;;;;;28.51;29.91;101652.91;5086698;27;20044;-64
2022/08/12 06:55:31;;;;;;;8.23;2.60;;;;;;;28.97;28.63;101655.78;5086438;27;20140;-64
2022/08/12 06:58:00;;;;;;;6.57;2.33;;;;;;;28.68;29.61;101664.50;5085321;27;20052;-63
2022/08/12 07:00:33;;;;;;;7.25;2.40;;;;;;;28.79;29.80;101661.41;5086122;27;20503;-63
2022/08/12 07:03:02;;;;;;;6.03;2.40;;;;;;;29.33;30.34;101661.50;5073674;28;20048;-63
2022/08/12 07:05:29;;;;;;;7.68;2.88;;;;;;;28.76;29.31;101672.56;5077148;27;20066;-63
2022/08/12 07:08:07;;;;;;;5.00;2.47;;;;;;;28.75;30.02;101656.56;5084442;27;20036;-64
2022/08/12 07:10:38;;;;;;;9.23;2.67;;;;;;;29.28;30.03;101655.78;5086032;27;20048;-63
2022/08/12 07:13:05;;;;;;;4.63;2.05;;;;;;;29.92;30.21;101652.59;5087115;27;20036;-63
2022/08/12 07:15:31;;;;;;;7.05;2.20;;;;;;;30.78;29.12;101654.69;5086115;27;20044;-63
2022/08/12 07:18:04;;;;;;;5.53;2.33;;;;;;;31.22;27.12;101657.34;5086260;27;20044;-63
2022/08/12 07:20:33;;;;;;;9.88;2.40;;;;;;;31.18;27.11;101652.50;5085143;28;20036;-63
2022/08/12 07:23:02;;;;;;;4.45;2.10;;;;;;;30.76;27.20;101654.06;5087685;28;20047;-63
2022/08/12 07:25:33;;;;;;;4.80;2.30;;;;;;;30.58;27.17;101656.31;5085484;28;20040;-63
2022/08/12 07:28:02;;;;;;;4.78;2.22;;;;;;;30.79;26.59;101656.38;5084624;27;20090;-63
2022/08/12 07:30:30;;;;;;;5.18;2.28;;;;;;;31.22;26.71;101654.66;5083957;27;20127;-63
2022/08/12 07:32:57;;;;;;;4.88;2.35;;;;;;;31.98;25.18;101655.78;5087107;27;20411;-63
2022/08/12 07:35:23;;;;;;;15.55;3.22;;;;;;;31.54;26.17;101658.75;5083854;27;20048;-63
2022/08/12 07:37:52;;;;;;;6.78;2.10;;;;;;;31.59;25.77;101660.88;5085094;27;20040;-63
2022/08/12 07:40:19;;;;;;;5.63;2.00;;;;;;;32.18;26.14;101653.25;5090085;27;20431;-63
2022/08/12 07:42:46;;;;;;;6.45;2.10;;;;;;;33.15;26.55;101648.53;5064942;27;20052;-63
2022/08/12 07:45:13;;;;;;;5.38;1.98;;;;;;;32.66;25.35;101641.47;5083766;27;20052;-63
2022/08/12 07:47:42;;;;;;;4.57;1.80;;;;;;;32.85;24.36;101644.44;5085594;27;20079;-63
2022/08/12 07:50:09;;;;;;;4.65;1.88;;;;;;;32.67;24.16;101653.97;5081146;27;20141;-65
2022/08/12 07:52:37;;;;;;;6.30;2.03;;;;;;;33.42;24.09;101642.09;5085047;28;20044;-66
2022/08/12 07:55:04;;;;;;;5.65;1.75;;;;;;;34.07;22.28;101644.00;5084911;28;20078;-66
2022/08/12 07:57:32;;;;;;;4.00;2.05;;;;;;;33.91;24.77;101641.75;5082286;28;20493;-67
2022/08/12 08:00:03;;;;;;;5.97;1.90;;;;;;;32.58;23.83;101651.59;5077893;28;20044;-66
2022/08/12 08:02:32;;;;;;;12.63;1.92;;;;;;;33.42;22.53;101646.69;5084044;27;20072;-67
2022/08/12 08:04:59;;;;;;;3.65;1.73;;;;;;;32.99;23.91;101644.28;5086357;27;20051;-68
2022/08/12 08:07:28;;;;;;;5.80;2.10;;;;;;;32.89;24.22;101643.81;5086634;28;20567;-73
2022/08/12 08:09:56;;;;;;;7.53;1.75;;;;;;;33.97;24.76;101640.88;5081465;27;20044;-68
2022/08/12 08:15:09;;;;;;;8.18;1.60;;;;;;;35.14;21.61;101638.06;5081192;27;20047;-68
2022/08/12 08:17:36;;;;;;;9.05;1.60;;;;;;;34.92;20.56;101640.25;5087057;27;20058;-67
2022/08/12 08:20:04;;;;;;;5.10;1.70;;;;;;;34.47;22.17;101641.25;5084016;27;20484;-67
2022/08/12 08:22:31;;;;;;;4.07;1.60;;;;;;;34.40;22.40;101626.81;5083045;28;20047;-67
2022/08/12 08:24:58;;;;;;;7.15;1.58;;;;;;;34.49;22.67;101633.69;5086560;27;20097;-67
2022/08/12 08:27:24;;;;;;;10.88;1.80;;;;;;;34.31;21.62;101631.66;5097283;27;20047;-66
2022/08/12 08:29:51;;;;;;;14.55;1.63;;;;;;;34.88;20.64;101636.31;5082972;27;20101;-66
2022/08/12 08:32:19;;;;;;;8.02;1.60;;;;;;;35.08;20.55;101641.63;5084962;28;20043;-69
2022/08/12 08:34:46;;;;;;;4.45;1.42;;;;;;;35.17;20.11;101643.09;5081934;27;20176;-67
2022/08/12 08:37:13;;;;;;;3.83;1.45;;;;;;;34.77;21.59;101638.88;5081779;27;20134;-68
2022/08/12 08:39:40;;;;;;;5.18;1.50;;;;;;;34.85;19.12;101638.63;5084140;27;20047;-67
2022/08/12 08:44:51;;;;;;;7.97;1.80;;;;;;;33.40;21.48;101627.91;5087689;28;20051;-68
2022/08/12 08:47:20;;;;;;;4.28;1.40;;;;;;;33.72;21.46;101627.09;5082419;27;20043;-68
2022/08/12 08:49:47;;;;;;;3.75;1.70;;;;;;;32.97;22.05;101621.06;5082059;27;20493;-68
2022/08/12 08:52:13;;;;;;;2.55;1.35;;;;;;;33.28;21.62;101630.38;5088620;27;20058;-68
2022/08/12 08:54:40;;;;;;;4.30;1.80;;;;;;;33.45;20.79;101625.38;5085276;27;20495;-68
2022/08/12 08:57:07;;;;;;;1.88;1.50;;;;;;;33.88;22.37;101633.16;5082624;28;20491;-68
2022/08/12 08:59:34;;;;;;;4.75;1.42;;;;;;;34.33;21.18;101624.09;5085840;28;20484;-68
2022/08/12 09:02:01;;;;;;;5.78;1.50;;;;;;;34.37;21.10;101619.09;5084027;27;20636;-68
2022/08/12 09:04:28;;;;;;;5.75;1.70;;;;;;;34.36;19.60;101623.69;5082665;27;20056;-68
2022/08/12 09:06:57;;;;;;;5.35;1.90;;;;;;;33.79;21.01;101605.31;5085069;27;20511;-68
2022/08/12 09:09:24;;;;;;;3.60;1.42;;;;;;;33.41;20.30;101612.44;5080693;27;20120;-68
2022/08/12 09:14:34;;;;;;;4.95;1.80;;;;;;;32.88;21.72;101630.47;5083091;27;20083;-67
2022/08/12 09:17:00;;;;;;;4.45;1.35;;;;;;;32.94;21.77;101600.59;5084399;27;20097;-68
2022/08/12 09:19:28;;;;;;;5.00;1.40;;;;;;;33.26;20.75;101627.03;5084929;27;20064;-67
2022/08/12 09:21:57;;;;;;;5.00;1.52;;;;;;;33.44;20.85;101625.59;5071312;27;20535;-67
2022/08/12 09:24:23;;;;;;;4.65;1.40;;;;;;;33.35;21.58;101626.84;5083182;27;20044;-67
2022/08/12 09:26:49;;;;;;;2.70;1.30;;;;;;;33.75;20.30;101613.06;5084501;28;20108;-67
2022/08/12 09:29:20;;;;;;;5.57;1.40;;;;;;;33.49;22.04;101614.91;5075732;27;20040;-68
2022/08/12 09:31:51;;;;;;;3.97;1.40;;;;;;;33.71;20.04;101609.09;5063256;28;20052;-68
2022/08/12 09:34:18;;;;;;;3.90;1.42;;;;;;;34.00;20.42;101605.09;5083566;27;20557;-68
2022/08/12 09:36:44;;;;;;;4.22;1.80;;;;;;;32.99;21.10;101592.66;5083989;27;20122;-68
2022/08/12 09:39:12;;;;;;;2.40;1.42;;;;;;;32.25;21.89;101610.72;5080991;27;20044;-68
2022/08/12 09:41:39;;;;;;;4.68;1.50;;;;;;;33.13;23.57;101601.72;5085010;27;20078;-67
2022/08/12 09:46:49;;;;;;;4.93;1.52;;;;;;;33.87;21.33;101588.78;5083909;28;20043;-68
2022/08/12 09:49:16;;;;;;;4.03;1.27;;;;;;;34.24;20.14;101603.63;5085184;28;20048;-67
2022/08/12 09:51:45;;;;;;;3.05;1.25;;;;;;;33.81;20.01;101592.38;5085887;28;20048;-67
2022/08/12 09:54:15;;;;;;;3.65;1.65;;;;;;;33.48;21.07;101599.66;5088233;28;20052;-67
2022/08/12 09:56:43;;;;;;;13.48;1.42;;;;;;;34.42;20.70;101598.31;5086951;27;20051;-67
2022/08/12 09:59:09;;;;;;;2.45;1.23;;;;;;;34.71;20.72;101596.97;5085231;27;20036;-68
2022/08/12 10:01:37;;;;;;;3.13;1.23;;;;;;;34.74;20.65;101593.78;5087669;27;20044;-68
2022/08/12 10:04:09;;;;;;;2.63;1.13;;;;;;;34.37;20.09;101592.66;5088705;27;20040;-68
2022/08/12 10:06:35;;;;;;;2.25;1.17;;;;;;;34.31;18.41;101582.66;5085984;27;20496;-68
2022/08/12 10:09:04;;;;;;;2.30;1.20;;;;;;;34.51;19.13;101575.25;5088185;27;20044;-68
2022/08/12 10:14:16;;;;;;;1.60;1.30;;;;;;;34.00;20.29;101575.16;5087887;27;20047;-68
2022/08/12 10:16:44;;;;;;;3.78;1.20;;;;;;;34.41;20.56;101569.41;5089160;28;20101;-68
2022/08/12 10:19:11;;;;;;;3.92;1.17;;;;;;;34.22;19.34;101576.59;5084400;28;20722;-67
2022/08/12 10:21:40;;;;;;;3.85;1.10;;;;;;;33.59;19.44;101567.22;5086403;28;20495;-67
2022/08/12 10:24:08;;;;;;;2.97;1.10;;;;;;;33.20;20.16;101564.50;5086612;27;20054;-67
2022/08/12 10:29:38;;;;;;;6.97;1.30;;;;;;;33.42;21.13;101571.41;5087326;27;20184;-68
2022/08/12 10:32:06;;;;;;;6.90;1.50;;;;;;;34.23;20.43;101559.22;5090063;28;20409;-68
2022/08/12 10:34:33;;;;;;;3.60;1.20;;;;;;;34.67;19.91;101572.03;5097447;27;20064;-67
2022/08/12 10:37:01;;;;;;;1.73;1.10;;;;;;;34.03;19.55;101563.03;5104442;27;20055;-67
2022/08/12 10:39:32;;;;;;;1.10;0.90;;;;;;;32.94;20.23;101570.69;5098594;27;20039;-67
2022/08/12 10:44:45;;;;;;;5.00;1.20;;;;;;;33.07;20.75;101559.03;5086799;27;20152;-67
2022/08/12 10:47:12;;;;;;;4.97;0.98;;;;;;;33.62;19.56;101572.25;5087304;27;20048;-67
2022/08/12 10:49:39;;;;;;;1.77;0.95;;;;;;;33.75;19.71;101553.22;5084772;27;20082;-67
2022/08/12 10:52:06;;;;;;;2.80;1.10;;;;;;;34.64;20.35;101556.13;5087398;28;20039;-68
2022/08/12 10:54:32;;;;;;;4.28;1.30;;;;;;;34.85;18.05;101559.59;5086045;27;20109;-69
2022/08/12 10:57:00;;;;;;;7.10;1.00;;;;;;;33.58;19.04;101548.41;5084650;27;20507;-68
2022/08/12 10:59:28;;;;;;;2.28;1.08;;;;;;;32.66;20.08;101551.00;5086853;27;20090;-68
2022/08/12 11:01:55;;;;;;;2.45;0.98;;;;;;;32.66;20.73;101548.28;5087617;27;20051;-68
2022/08/12 11:04:22;;;;;;;2.55;0.80;;;;;;;32.85;19.42;101542.06;5085758;27;20128;-68
2022/08/12 11:06:49;;;;;;;2.47;1.17;;;;;;;32.75;20.00;101542.44;5085245;27;20479;-68
2022/08/12 11:09:19;;;;;;;3.05;0.80;;;;;;;32.38;20.26;101534.75;5085611;28;20044;-68
2022/08/12 11:11:47;;;;;;;4.82;1.30;;;;;;;32.79;22.54;101534.72;5085141;27;20040;-68
2022/08/12 11:14:17;;;;;;;2.72;1.00;;;;;;;33.09;20.07;101536.03;5086445;27;20044;-68
2022/08/12 11:16:44;;;;;;;3.13;1.00;;;;;;;33.44;19.68;101539.44;5086692;27;20044;-68
2022/08/12 11:19:10;;;;;;;3.22;0.90;;;;;;;33.66;22.30;101519.16;5085354;27;21499;-68
2022/08/12 11:21:37;;;;;;;3.35;1.02;;;;;;;34.17;21.54;101523.84;5084987;28;20044;-68
2022/08/12 11:24:04;;;;;;;2.88;1.20;;;;;;;34.49;19.28;101522.88;5086146;28;20130;-67
2022/08/12 11:26:30;;;;;;;2.13;0.90;;;;;;;34.12;20.08;101529.06;5085110;27;20044;-67
2022/08/12 11:28:57;;;;;;;1.33;1.00;;;;;;;34.59;18.94;101528.66;5084622;27;20558;-67
2022/08/12 11:31:24;;;;;;;2.10;1.30;;;;;;;34.91;18.44;101518.69;5086554;27;20044;-67
2022/08/12 11:33:51;;;;;;;1.55;0.88;;;;;;;35.11;19.33;101523.97;5084891;27;20048;-67
2022/08/12 11:36:19;;;;;;;7.32;1.52;;;;;;;34.06;18.36;101513.59;5084604;27;20044;-67
2022/08/12 11:38:45;;;;;;;4.50;1.17;;;;;;;32.61;20.29;101521.72;5085556;27;20146;-68
2022/08/12 11:41:11;;;;;;;4.38;1.00;;;;;;;33.20;21.95;101504.72;5085314;27;20073;-68
2022/08/12 11:43:38;;;;;;;1.85;1.08;;;;;;;33.49;21.47;101501.56;5085277;27;20109;-68
2022/08/12 11:46:04;;;;;;;2.30;1.00;;;;;;;32.73;19.35;101505.69;5085881;28;20549;-68
2022/08/12 11:48:38;;;;;;;8.32;1.10;;;;;;;33.03;21.01;101504.28;5085254;28;20044;-68
2022/08/12 11:51:05;;;;;;;1.42;1.00;;;;;;;33.48;19.99;101505.31;5085087;28;20166;-68
2022/08/12 11:53:31;;;;;;;1.80;1.00;;;;;;;33.92;19.55;101492.94;5084008;28;20519;-68
2022/08/12 11:55:58;;;;;;;2.03;0.90;;;;;;;34.21;19.99;101497.88;5086425;28;20056;-68
2022/08/12 11:58:24;;;;;;;2.13;1.00;;;;;;;33.69;19.06;101507.84;5085471;28;20051;-68
2022/08/12 12:00:52;;;;;;;2.42;1.10;;;;;;;33.33;20.47;101502.00;5085737;28;20074;-68
2022/08/12 12:03:18;;;;;;;5.00;0.93;;;;;;;33.41;18.83;101504.47;5075572;28;20524;-72
2022/08/12 12:05:46;;;;;;;6.38;1.20;;;;;;;33.14;19.29;101492.81;5084990;27;20051;-72
2022/08/12 12:08:20;;;;;;;2.42;1.05;;;;;;;32.91;20.14;101486.06;5083424;27;20044;-72
2022/08/12 12:10:48;;;;;;;6.80;0.88;;;;;;;32.77;20.77;101488.78;5083549;27;20046;-72
2022/08/12 12:13:15;;;;;;;3.40;0.98;;;;;;;32.22;19.76;101483.56;5073053;28;20114;-73
2022/08/12 12:15:42;;;;;;;2.67;0.80;;;;;;;33.06;21.30;101476.66;5082813;27;20142;-74
2022/08/12 12:18:19;;;;;;;2.72;0.93;;;;;;;33.72;19.99;101476.66;5085641;27;20051;-74
2022/08/12 12:20:47;;;;;;;1.88;1.00;;;;;;;34.22;20.31;101464.97;5085522;28;20051;-75
2022/08/12 12:23:14;;;;;;;3.00;0.90;;;;;;;35.06;19.51;101478.31;5081529;28;20473;-74
2022/08/12 12:25:40;;;;;;;7.60;1.13;;;;;;;35.40;19.61;101474.25;5084094;28;20052;-74
2022/08/12 12:28:07;;;;;;;4.80;1.10;;;;;;;35.68;18.35;101468.31;5068687;28;20041;-74
2022/08/12 12:30:33;;;;;;;2.25;0.90;;;;;;;34.99;17.97;101477.53;5069601;28;20109;-75
2022/08/12 12:33:00;;;;;;;3.75;1.13;;;;;;;34.48;17.98;101466.72;5083856;28;20108;-74
2022/08/12 12:35:27;;;;;;;2.58;1.00;;;;;;;34.11;19.59;101462.91;5084822;28;20093;-75
2022/08/12 12:37:57;;;;;;;1.33;1.00;;;;;;;34.56;20.95;101466.47;5085057;28;20051;-74
2022/08/12 12:40:25;;;;;;;4.20;1.10;;;;;;;34.38;19.22;101465.53;5085152;28;20413;-74
2022/08/12 12:42:51;;;;;;;5.47;1.30;;;;;;;33.79;19.18;101454.88;5076179;28;20044;-74
2022/08/12 12:45:18;;;;;;;4.70;1.00;;;;;;;33.94;19.32;101461.72;5075596;28;20607;-74
2022/08/12 12:47:58;;;;;;;3.03;1.02;;;;;;;32.47;20.21;101459.41;5068876;27;20214;-74
2022/08/12 12:50:28;;;;;;;2.75;1.10;;;;;;;32.76;21.03;101450.94;5082723;28;20082;-74
2022/08/12 12:52:56;;;;;;;10.73;1.48;;;;;;;33.53;20.95;101455.75;5081970;27;20055;-74
2022/08/12 12:55:23;;;;;;;3.22;1.52;;;;;;;33.85;19.68;101446.69;5104243;27;20567;-74
2022/08/12 12:57:50;;;;;;;3.60;1.27;;;;;;;34.48;19.23;101444.13;5093856;27;20040;-74
2022/08/12 13:00:19;;;;;;;3.42;1.13;;;;;;;34.92;20.04;101443.22;5082393;27;20044;-74
2022/08/12 13:02:52;;;;;;;4.03;1.13;;;;;;;35.37;19.54;101449.31;5100689;27;20059;-74
2022/08/12 13:05:20;;;;;;;6.90;1.25;;;;;;;35.03;18.54;101446.03;5093573;27;20055;-74
2022/08/12 13:07:47;;;;;;;3.03;0.90;;;;;;;33.44;19.41;101438.00;5104414;27;20504;-74
2022/08/12 13:10:15;;;;;;;4.07;1.20;;;;;;;33.04;21.33;101437.97;5103084;27;20051;-74
2022/08/12 13:12:42;;;;;;;8.20;1.20;;;;;;;32.91;20.33;101442.59;5102425;27;20471;-74
2022/08/12 13:15:11;;;;;;;6.35;1.42;;;;;;;33.20;22.08;101443.03;5082710;27;20444;-74